Time;durP1;ratioP1;P1;durP2;ratioP2;P2;SDS_P1;SDS_P2;PMS_P1;PMS_P2;Temp;Humidity;BMP_temperature;BMP_pressure;BME280_temperature;BME280_humidity;BME280_pressure;Samples;Min_cycle;Max_cycle;Signal;HPM_P1;HPM_P2
2023/08/06 00:00:13;;;;;;;9.65;5.45;;;17.30;99.90;;;;;;4984158;28;20493;-91
2023/08/06 00:02:39;;;;;;;8.85;5.45;;;17.30;99.90;;;;;;4987443;28;20113;-92
2023/08/06 00:05:07;;;;;;;7.55;5.45;;;17.30;99.90;;;;;;4990878;28;20521;-91
2023/08/06 00:07:33;;;;;;;9.38;5.50;;;17.30;99.90;;;;;;4988857;28;20038;-91
2023/08/06 00:09:58;;;;;;;17.17;5.28;;;17.30;99.90;;;;;;4984824;28;20119;-79
2023/08/06 00:12:24;;;;;;;9.38;5.38;;;17.30;99.90;;;;;;4982023;28;20066;-78
2023/08/06 00:14:51;;;;;;;12.40;5.47;;;17.30;99.90;;;;;;4987289;28;20084;-91
2023/08/06 00:17:16;;;;;;;8.82;5.25;;;17.30;99.90;;;;;;4985546;28;20023;-93
2023/08/06 00:19:42;;;;;;;9.52;5.40;;;17.20;99.90;;;;;;4985543;28;20073;-90
2023/08/06 00:22:08;;;;;;;7.65;5.13;;;17.20;99.90;;;;;;4986024;28;20042;-92
2023/08/06 00:24:34;;;;;;;11.52;4.93;;;17.20;99.90;;;;;;4985598;28;20034;-92
2023/08/06 00:27:00;;;;;;;7.40;4.70;;;17.10;99.90;;;;;;4984751;28;20732;-90
2023/08/06 00:29:25;;;;;;;9.18;5.20;;;17.10;99.90;;;;;;4986243;28;20025;-89
2023/08/06 00:31:51;;;;;;;6.88;4.90;;;17.10;99.90;;;;;;4988080;28;20490;-90
2023/08/06 00:34:17;;;;;;;7.85;4.57;;;17.10;99.90;;;;;;4987520;28;20030;-89
2023/08/06 00:36:42;;;;;;;10.50;5.13;;;17.10;99.90;;;;;;4986701;28;20437;-90
2023/08/06 00:39:08;;;;;;;12.02;5.15;;;17.10;99.90;;;;;;4985221;28;20022;-90
2023/08/06 00:41:33;;;;;;;11.68;4.97;;;17.20;99.90;;;;;;4985274;28;20027;-92
2023/08/06 00:43:59;;;;;;;8.95;5.30;;;17.10;99.90;;;;;;4985461;28;20037;-88
2023/08/06 00:46:25;;;;;;;10.02;4.93;;;17.10;99.90;;;;;;4975287;28;20035;-91
2023/08/06 00:48:51;;;;;;;7.40;4.82;;;17.10;99.90;;;;;;4984772;28;20052;-92
2023/08/06 00:51:16;;;;;;;7.35;4.82;;;17.10;99.90;;;;;;4987670;28;20053;-91
2023/08/06 00:53:42;;;;;;;5.93;4.57;;;17.10;99.90;;;;;;4982430;28;20023;-91
2023/08/06 00:56:09;;;;;;;5.43;4.72;;;17.10;99.90;;;;;;4983912;28;20030;-79
2023/08/06 00:58:36;;;;;;;17.02;4.60;;;17.10;99.90;;;;;;4982796;28;20030;-78
2023/08/06 01:01:04;;;;;;;11.60;5.00;;;17.10;99.90;;;;;;4983677;28;20062;-79
2023/08/06 01:03:30;;;;;;;6.22;5.20;;;17.10;99.90;;;;;;4986164;28;20030;-92
2023/08/06 01:05:56;;;;;;;10.80;4.65;;;17.10;99.90;;;;;;4984957;28;20034;-90
2023/08/06 01:08:40;;;;;;;7.85;4.32;;;17.10;99.90;;;;;;4984328;28;20034;-80
2023/08/06 01:11:30;;;;;;;6.38;4.53;;;17.20;99.90;;;;;;4981793;28;20096;-90
2023/08/06 01:14:22;;;;;;;4.95;4.47;;;17.20;99.90;;;;;;4986349;28;20490;-91
2023/08/06 01:16:50;;;;;;;8.30;4.53;;;17.20;99.90;;;;;;4984865;28;20394;-91
2023/08/06 01:19:17;;;;;;;6.05;4.50;;;17.10;99.90;;;;;;4985251;28;20053;-91
2023/08/06 01:21:43;;;;;;;9.70;4.60;;;17.10;99.90;;;;;;4986637;28;20064;-90
2023/08/06 01:24:11;;;;;;;7.78;4.70;;;17.20;99.90;;;;;;4984433;28;20041;-91
2023/08/06 01:27:08;;;;;;;8.15;4.45;;;17.10;99.90;;;;;;4982588;28;20035;-90
2023/08/06 01:29:45;;;;;;;11.00;4.47;;;17.10;99.90;;;;;;4977930;28;20053;-90
2023/08/06 01:32:12;;;;;;;6.05;3.97;;;17.10;99.90;;;;;;4991293;28;20062;-89
2023/08/06 01:34:41;;;;;;;10.02;3.75;;;17.20;99.90;;;;;;4988999;28;20062;-92
2023/08/06 01:37:07;;;;;;;5.35;3.97;;;17.20;99.90;;;;;;4986154;28;20060;-89
2023/08/06 01:39:36;;;;;;;6.50;4.20;;;17.20;99.90;;;;;;4979243;28;20038;-80
2023/08/06 01:42:02;;;;;;;7.05;3.80;;;17.20;99.90;;;;;;4987798;28;20023;-91
2023/08/06 01:44:27;;;;;;;7.65;4.55;;;17.20;99.90;;;;;;4986382;28;20018;-78
2023/08/06 01:46:53;;;;;;;7.93;4.57;;;17.20;99.90;;;;;;4990323;28;20029;-89
2023/08/06 01:49:19;;;;;;;11.80;4.60;;;17.20;99.90;;;;;;5000753;28;20022;-88
2023/08/06 01:51:44;;;;;;;8.93;4.95;;;17.20;99.90;;;;;;5007737;28;20098;-85
2023/08/06 01:54:10;;;;;;;8.00;4.50;;;17.10;99.90;;;;;;5009225;28;20024;-79
2023/08/06 01:56:35;;;;;;;7.55;4.20;;;17.10;99.90;;;;;;4990375;28;20050;-85
2023/08/06 01:59:01;;;;;;;5.93;4.57;;;17.10;99.90;;;;;;5007808;28;20115;-88
2023/08/06 02:01:27;;;;;;;7.25;4.63;;;17.10;99.90;;;;;;5007868;28;20042;-88
2023/08/06 02:03:52;;;;;;;9.15;4.63;;;17.10;99.90;;;;;;4989723;28;20034;-91
2023/08/06 02:06:18;;;;;;;4.93;4.43;;;17.10;99.90;;;;;;4994468;28;20085;-79
2023/08/06 02:08:43;;;;;;;8.88;4.68;;;17.10;99.90;;;;;;4993364;28;20410;-90
2023/08/06 02:11:09;;;;;;;7.93;4.82;;;17.10;99.90;;;;;;4985803;28;20165;-89
2023/08/06 02:13:35;;;;;;;9.60;5.07;;;17.20;99.90;;;;;;4987615;28;20100;-90
2023/08/06 02:16:00;;;;;;;9.20;5.72;;;17.20;99.90;;;;;;4982951;28;20065;-80
2023/08/06 02:18:28;;;;;;;6.78;5.53;;;17.20;99.90;;;;;;4985459;28;20057;-91
2023/08/06 02:21:00;;;;;;;9.95;6.22;;;17.10;99.90;;;;;;4982453;28;20126;-89
2023/08/06 02:23:26;;;;;;;10.98;7.55;;;17.10;99.90;;;;;;4984095;28;20022;-91
2023/08/06 02:26:02;;;;;;;7.00;6.22;;;17.10;99.90;;;;;;4986973;28;20129;-91
2023/08/06 02:28:32;;;;;;;13.48;6.05;;;17.20;99.90;;;;;;4987902;28;20033;-90
2023/08/06 02:30:58;;;;;;;9.00;6.43;;;17.20;99.90;;;;;;4989705;28;20037;-89
2023/08/06 02:33:24;;;;;;;11.85;7.00;;;17.10;99.90;;;;;;4984989;28;20034;-79
2023/08/06 02:35:50;;;;;;;9.13;6.93;;;17.10;99.90;;;;;;4983387;28;20030;-78
2023/08/06 02:38:15;;;;;;;9.30;6.32;;;17.20;99.90;;;;;;4984514;28;20371;-79
2023/08/06 02:40:45;;;;;;;13.50;6.60;;;17.20;99.90;;;;;;4983610;28;20022;-79
2023/08/06 02:43:11;;;;;;;16.52;7.45;;;17.20;99.90;;;;;;4984334;28;20102;-79
2023/08/06 02:45:36;;;;;;;10.88;7.28;;;17.20;99.90;;;;;;4984041;28;20026;-79
2023/08/06 02:48:02;;;;;;;14.30;7.10;;;17.10;99.90;;;;;;4988251;28;20386;-89
2023/08/06 02:50:30;;;;;;;14.55;6.75;;;17.10;99.90;;;;;;4986959;28;20029;-89
2023/08/06 02:52:56;;;;;;;8.98;6.70;;;17.10;99.90;;;;;;4985657;28;20541;-90
2023/08/06 02:55:21;;;;;;;12.85;6.00;;;17.10;99.90;;;;;;4989944;28;20030;-89
2023/08/06 02:57:47;;;;;;;6.32;5.40;;;17.10;99.90;;;;;;4985360;28;20054;-89
2023/08/06 03:00:12;;;;;;;8.07;5.90;;;17.10;99.90;;;;;;4988297;28;20044;-90
2023/08/06 03:02:38;;;;;;;12.27;6.43;;;17.10;99.90;;;;;;4984886;28;20035;-89
2023/08/06 03:05:06;;;;;;;8.85;5.88;;;17.10;99.90;;;;;;4986169;28;20026;-90
2023/08/06 03:07:33;;;;;;;6.85;5.40;;;17.10;99.90;;;;;;4987182;28;20030;-89
2023/08/06 03:10:02;;;;;;;8.32;5.25;;;17.10;99.90;;;;;;4985366;28;20046;-88
2023/08/06 03:12:29;;;;;;;8.18;5.88;;;17.10;99.90;;;;;;4986548;28;20121;-89
2023/08/06 03:14:55;;;;;;;7.07;5.75;;;17.00;99.90;;;;;;4987794;28;20035;-89
2023/08/06 03:17:20;;;;;;;7.82;4.88;;;17.00;99.90;;;;;;4988097;28;20733;-89
2023/08/06 03:19:46;;;;;;;6.70;5.63;;;17.00;99.90;;;;;;4981782;28;20033;-79
2023/08/06 03:22:12;;;;;;;8.88;5.70;;;17.10;99.90;;;;;;4985231;28;20077;-80
2023/08/06 03:24:37;;;;;;;9.57;5.50;;;17.10;99.90;;;;;;4982383;28;20068;-79
2023/08/06 03:27:03;;;;;;;7.95;6.15;;;17.00;99.90;;;;;;4984217;28;20023;-80
2023/08/06 03:29:31;;;;;;;6.75;5.13;;;17.00;99.90;;;;;;4982733;28;20023;-79
2023/08/06 03:31:57;;;;;;;8.18;5.50;;;17.10;99.90;;;;;;4977432;28;20035;-80
2023/08/06 03:34:22;;;;;;;5.90;5.30;;;17.00;99.90;;;;;;4984772;28;20076;-79
2023/08/06 03:36:48;;;;;;;7.07;5.65;;;17.00;99.90;;;;;;4982378;28;20505;-79
2023/08/06 03:39:13;;;;;;;8.50;5.63;;;17.10;99.90;;;;;;4985240;28;20053;-89
2023/08/06 03:41:39;;;;;;;10.45;5.63;;;17.10;99.90;;;;;;4988658;28;20026;-89
2023/08/06 03:44:05;;;;;;;10.18;5.53;;;17.10;99.90;;;;;;4985057;28;20030;-89
2023/08/06 03:46:40;;;;;;;8.20;5.15;;;17.10;99.90;;;;;;4984364;28;20057;-79
2023/08/06 03:49:06;;;;;;;7.35;5.75;;;17.10;99.90;;;;;;4981863;28;20082;-79
2023/08/06 03:51:31;;;;;;;7.50;4.82;;;17.00;99.90;;;;;;4982323;28;20382;-79
2023/08/06 03:53:59;;;;;;;10.07;4.85;;;17.00;99.90;;;;;;4982170;28;20022;-80
2023/08/06 03:56:25;;;;;;;6.63;5.28;;;17.00;99.90;;;;;;4973513;28;20088;-80
2023/08/06 03:58:50;;;;;;;6.53;4.88;;;17.00;99.90;;;;;;4979556;28;20389;-79
2023/08/06 04:01:16;;;;;;;7.78;4.85;;;17.00;99.90;;;;;;4981694;28;20030;-89
2023/08/06 04:03:44;;;;;;;6.50;4.95;;;17.00;99.90;;;;;;4987197;28;20030;-89
2023/08/06 04:06:09;;;;;;;11.55;4.90;;;17.00;99.90;;;;;;4975634;28;20034;-89
2023/08/06 04:08:35;;;;;;;8.13;4.82;;;17.00;99.90;;;;;;4983401;28;20018;-89
2023/08/06 04:11:01;;;;;;;6.43;4.32;;;17.00;99.90;;;;;;4987478;28;20026;-90
2023/08/06 04:13:26;;;;;;;6.05;4.75;;;17.00;99.90;;;;;;4978072;28;20509;-88
2023/08/06 04:15:53;;;;;;;7.88;4.95;;;17.00;99.90;;;;;;4985582;28;20022;-90
2023/08/06 04:18:19;;;;;;;8.85;5.25;;;17.10;99.90;;;;;;4986034;28;20026;-88
2023/08/06 04:20:45;;;;;;;10.02;4.93;;;17.10;99.90;;;;;;4979675;28;20528;-80
2023/08/06 04:23:11;;;;;;;6.55;4.60;;;17.10;99.90;;;;;;4981754;28;20129;-79
2023/08/06 04:25:37;;;;;;;9.10;5.05;;;17.10;99.90;;;;;;4982060;28;20109;-80
2023/08/06 04:28:02;;;;;;;6.15;4.72;;;17.10;99.90;;;;;;4982000;28;20061;-79
2023/08/06 04:30:28;;;;;;;9.30;4.65;;;17.10;99.90;;;;;;4981090;28;20433;-89
2023/08/06 04:32:53;;;;;;;5.35;4.38;;;17.10;99.90;;;;;;4982741;28;20117;-86
2023/08/06 04:35:19;;;;;;;7.32;4.88;;;17.10;99.90;;;;;;4985181;28;20081;-91
2023/08/06 04:37:45;;;;;;;8.45;5.00;;;17.10;99.90;;;;;;4982079;28;20061;-88
2023/08/06 04:40:13;;;;;;;8.60;4.85;;;17.10;99.90;;;;;;4979832;28;20118;-90
2023/08/06 04:42:38;;;;;;;6.50;4.55;;;17.10;99.90;;;;;;4982006;28;20058;-80
2023/08/06 04:45:05;;;;;;;5.97;4.28;;;17.10;99.90;;;;;;4971997;28;20560;-80
2023/08/06 04:47:30;;;;;;;4.45;4.05;;;17.20;99.90;;;;;;4982537;28;20386;-80
2023/08/06 04:49:56;;;;;;;7.32;4.75;;;17.20;99.90;;;;;;4985908;28;20023;-79
2023/08/06 04:52:22;;;;;;;6.38;4.32;;;17.20;99.90;;;;;;4978014;28;20472;-80
2023/08/06 04:54:47;;;;;;;4.95;4.40;;;17.20;99.90;;;;;;4978100;28;20827;-79
2023/08/06 04:57:13;;;;;;;8.35;4.30;;;17.20;99.90;;;;;;4981237;28;20030;-80
2023/08/06 04:59:39;;;;;;;5.65;3.88;;;17.20;99.90;;;;;;4978940;28;20093;-79
2023/08/06 05:02:05;;;;;;;5.32;3.65;;;17.20;99.90;;;;;;4978098;28;20054;-80
2023/08/06 05:04:30;;;;;;;5.90;4.45;;;17.20;99.90;;;;;;4979768;28;20061;-79
2023/08/06 05:06:56;;;;;;;8.18;3.83;;;17.20;99.90;;;;;;4979783;28;20023;-79
2023/08/06 05:09:24;;;;;;;8.35;4.35;;;17.30;99.90;;;;;;4985032;28;20014;-90
2023/08/06 05:11:49;;;;;;;6.88;4.50;;;17.30;99.90;;;;;;4983292;28;20686;-89
2023/08/06 05:14:15;;;;;;;9.52;3.85;;;17.30;99.90;;;;;;4984362;28;20030;-90
2023/08/06 05:16:40;;;;;;;4.47;3.92;;;17.30;99.90;;;;;;4983364;28;20030;-88
2023/08/06 05:19:08;;;;;;;4.43;4.00;;;17.40;99.90;;;;;;4976613;28;20028;-90
2023/08/06 05:21:34;;;;;;;5.47;3.90;;;17.40;99.90;;;;;;4987768;28;20042;-89
2023/08/06 05:23:59;;;;;;;5.72;3.90;;;17.40;99.90;;;;;;4981326;28;20030;-89
2023/08/06 05:26:25;;;;;;;11.63;4.03;;;17.40;99.90;;;;;;4982209;28;20057;-79
2023/08/06 05:28:51;;;;;;;7.97;4.20;;;17.40;99.90;;;;;;4979845;28;20498;-80
2023/08/06 05:31:16;;;;;;;4.93;3.67;;;17.50;99.90;;;;;;4973162;28;20054;-90
2023/08/06 05:33:42;;;;;;;6.05;3.83;;;17.50;99.90;;;;;;4985985;28;20033;-89
2023/08/06 05:36:07;;;;;;;11.90;4.53;;;17.50;99.90;;;;;;4985482;28;20026;-90
2023/08/06 05:38:33;;;;;;;4.10;3.70;;;17.60;99.90;;;;;;4983982;28;20022;-80
2023/08/06 05:40:59;;;;;;;5.40;4.47;;;17.60;99.90;;;;;;4980132;28;20542;-80
2023/08/06 05:43:24;;;;;;;7.72;4.07;;;17.70;99.90;;;;;;4982445;28;20513;-87
2023/08/06 05:45:50;;;;;;;5.05;3.50;;;17.70;99.90;;;;;;4982480;28;20077;-89
2023/08/06 05:48:19;;;;;;;7.63;3.78;;;17.70;99.90;;;;;;4985946;28;20035;-80
2023/08/06 05:50:44;;;;;;;7.65;4.25;;;17.80;99.90;;;;;;4980812;28;20029;-79
2023/08/06 05:53:12;;;;;;;8.27;3.55;;;17.90;99.90;;;;;;4977393;28;20034;-79
2023/08/06 05:55:39;;;;;;;9.95;3.85;;;18.00;99.90;;;;;;4982000;28;20041;-79
2023/08/06 05:58:04;;;;;;;6.75;3.50;;;18.00;99.90;;;;;;4981670;28;20069;-80
2023/08/06 06:00:30;;;;;;;3.78;3.45;;;18.10;99.90;;;;;;4976830;28;20054;-80
2023/08/06 06:02:55;;;;;;;4.35;3.35;;;18.10;99.90;;;;;;5000778;28;20018;-79
2023/08/06 06:05:21;;;;;;;6.00;3.53;;;18.10;99.90;;;;;;4984840;28;20394;-80
2023/08/06 06:07:49;;;;;;;6.68;3.63;;;18.20;99.90;;;;;;4984985;28;20026;-80
2023/08/06 06:10:15;;;;;;;4.68;3.45;;;18.20;99.90;;;;;;4988392;28;20198;-79
2023/08/06 06:12:41;;;;;;;7.13;3.75;;;18.30;99.90;;;;;;4981936;28;20117;-80
2023/08/06 06:15:07;;;;;;;8.40;3.45;;;18.40;99.90;;;;;;4985690;28;20018;-80
2023/08/06 06:17:34;;;;;;;5.65;3.65;;;18.40;99.90;;;;;;4984581;28;20030;-79
2023/08/06 06:19:59;;;;;;;6.43;3.63;;;18.40;99.90;;;;;;4985688;28;20102;-80
2023/08/06 06:22:25;;;;;;;4.05;3.65;;;18.50;99.90;;;;;;4982229;28;20113;-80
2023/08/06 06:24:50;;;;;;;5.18;3.35;;;18.50;99.90;;;;;;4985108;28;20034;-79
2023/08/06 06:27:16;;;;;;;5.88;3.85;;;18.60;99.90;;;;;;4986074;28;20482;-79
2023/08/06 06:29:42;;;;;;;5.72;4.32;;;18.60;99.90;;;;;;4983939;28;20022;-80
2023/08/06 06:32:07;;;;;;;6.68;3.97;;;18.70;99.90;;;;;;4985744;28;20038;-80
2023/08/06 06:34:33;;;;;;;5.75;3.90;;;18.80;99.90;;;;;;4979757;28;20517;-79
2023/08/06 06:37:01;;;;;;;4.85;4.03;;;18.80;99.90;;;;;;4992281;28;20031;-80
2023/08/06 06:39:27;;;;;;;9.07;4.38;;;18.90;99.90;;;;;;4999064;28;20077;-82
2023/08/06 06:41:52;;;;;;;7.65;5.22;;;18.90;99.90;;;;;;4995933;28;20722;-80
2023/08/06 06:44:20;;;;;;;7.70;4.45;;;18.90;99.90;;;;;;4986195;28;20026;-81
2023/08/06 06:46:46;;;;;;;11.18;4.43;;;19.00;99.90;;;;;;4983754;28;20030;-80
2023/08/06 06:49:12;;;;;;;5.40;4.60;;;19.10;99.90;;;;;;4984910;28;20018;-79
2023/08/06 06:51:39;;;;;;;8.25;4.88;;;19.20;99.90;;;;;;4982878;28;20165;-80
2023/08/06 06:54:05;;;;;;;8.45;4.60;;;19.30;99.90;;;;;;4981201;28;20038;-80
2023/08/06 06:56:33;;;;;;;7.38;4.68;;;19.40;99.90;;;;;;4981334;28;20022;-79
2023/08/06 06:59:01;;;;;;;7.75;4.32;;;19.40;99.90;;;;;;4984964;28;20150;-79
2023/08/06 07:01:26;;;;;;;6.38;4.80;;;19.50;99.90;;;;;;4985750;28;20513;-80
2023/08/06 07:03:52;;;;;;;6.78;4.47;;;19.60;99.90;;;;;;4985849;28;20026;-80
2023/08/06 07:06:18;;;;;;;7.63;4.95;;;19.40;99.90;;;;;;4985448;28;20018;-80
2023/08/06 07:08:44;;;;;;;9.73;4.95;;;19.60;99.90;;;;;;4980022;28;20557;-80
2023/08/06 07:11:10;;;;;;;6.10;4.35;;;19.60;99.90;;;;;;5001131;28;20034;-80
2023/08/06 07:13:36;;;;;;;8.13;5.10;;;19.80;99.90;;;;;;4983587;28;20026;-80
2023/08/06 07:16:02;;;;;;;7.75;5.07;;;19.80;99.90;;;;;;4982403;28;20395;-80
2023/08/06 07:18:28;;;;;;;4.82;4.32;;;19.80;99.90;;;;;;4979270;28;20026;-79
2023/08/06 07:20:55;;;;;;;4.95;4.22;;;19.90;99.90;;;;;;4983320;28;20713;-80
2023/08/06 07:23:22;;;;;;;5.68;3.30;;;20.00;99.90;;;;;;4982145;28;20026;-80
2023/08/06 07:25:48;;;;;;;10.88;4.20;;;20.20;99.80;;;;;;4989562;28;20041;-94
2023/08/06 07:28:14;;;;;;;6.22;3.80;;;20.20;99.90;;;;;;4990581;28;20019;-94
2023/08/06 07:30:41;;;;;;;7.35;3.42;;;20.20;99.90;;;;;;4992145;28;20034;-96
2023/08/06 07:33:06;;;;;;;6.38;4.68;;;20.30;99.90;;;;;;4992261;28;20027;-95
2023/08/06 07:35:33;;;;;;;8.88;4.88;;;20.30;99.90;;;;;;4990774;28;20045;-96
2023/08/06 07:37:59;;;;;;;6.28;5.13;;;20.40;99.90;;;;;;4994212;28;20015;-96
2023/08/06 07:40:25;;;;;;;7.35;5.22;;;20.50;99.90;;;;;;4998117;28;20053;-96
2023/08/06 07:42:52;;;;;;;6.10;4.80;;;20.50;99.40;;;;;;4966914;29;20054;-96
2023/08/06 07:45:19;;;;;;;6.03;5.40;;;20.50;99.30;;;;;;4971530;28;20027;-96
2023/08/06 07:47:56;;;;;;;7.63;4.95;;;20.50;99.90;;;;;;4964791;28;20039;-96
2023/08/06 07:50:55;;;;;;;9.60;5.15;;;20.50;99.90;;;;;;4936537;29;20051;-96
2023/08/06 07:53:42;;;;;;;7.82;5.38;;;20.60;99.90;;;;;;4953108;29;20103;-96
2023/08/06 07:56:29;;;;;;;9.80;4.80;;;20.70;99.90;;;;;;4955706;29;20052;-93
2023/08/06 07:58:55;;;;;;;8.82;4.80;;;20.70;99.80;;;;;;5346996;23;20043;-92
2023/08/06 08:14:21;;;;;;;10.13;8.45;;;20.50;99.90;;;;;;4959843;28;20048;-95
2023/08/06 08:16:47;;;;;;;12.27;8.45;;;20.30;99.90;;;;;;4963380;28;20038;-94
2023/08/06 08:19:13;;;;;;;14.50;8.32;;;20.20;99.90;;;;;;4971030;28;20027;-95
2023/08/06 08:21:39;;;;;;;9.82;8.60;;;20.10;99.90;;;;;;4963011;28;20058;-94
2023/08/06 08:24:05;;;;;;;10.60;7.90;;;20.20;99.90;;;;;;4960169;28;20051;-95
2023/08/06 08:26:33;;;;;;;14.02;7.90;;;20.10;99.90;;;;;;4959841;28;20122;-96
2023/08/06 08:28:59;;;;;;;12.25;9.05;;;20.20;99.90;;;;;;4960170;28;20109;-95
2023/08/06 08:31:29;;;;;;;11.82;9.38;;;20.20;99.90;;;;;;4965944;28;20069;-95
2023/08/06 08:34:00;;;;;;;10.88;9.32;;;20.30;99.90;;;;;;4973130;28;20447;-95
2023/08/06 08:36:26;;;;;;;9.68;8.73;;;20.40;99.90;;;;;;5031052;23;20054;-94
2023/08/06 08:38:53;;;;;;;12.70;9.15;;;20.30;99.90;;;;;;4978209;28;20026;-96
2023/08/06 08:41:31;;;;;;;11.02;8.75;;;20.20;99.90;;;;;;4972806;28;20067;-96
2023/08/06 08:44:00;;;;;;;14.95;8.55;;;20.10;99.90;;;;;;4972343;28;20385;-95
2023/08/06 08:46:32;;;;;;;12.32;10.20;;;20.00;99.90;;;;;;4967145;28;20146;-94
2023/08/06 08:49:00;;;;;;;17.70;10.65;;;20.10;99.90;;;;;;4969483;28;20111;-94
2023/08/06 08:51:27;;;;;;;12.23;9.85;;;20.20;99.90;;;;;;4971998;28;20419;-90
2023/08/06 08:53:58;;;;;;;13.25;10.07;;;20.20;99.80;;;;;;4984218;28;20050;-93
2023/08/06 08:56:24;;;;;;;14.85;10.85;;;20.30;99.90;;;;;;4984546;28;20379;-89
2023/08/06 08:58:55;;;;;;;13.18;10.20;;;20.40;99.50;;;;;;4986387;28;20283;-96
2023/08/06 09:01:22;;;;;;;15.80;9.43;;;20.50;99.70;;;;;;4966894;28;20132;-94
2023/08/06 09:03:50;;;;;;;10.55;9.52;;;20.50;99.70;;;;;;4981333;28;20031;-94
2023/08/06 09:06:18;;;;;;;11.07;9.98;;;20.40;99.60;;;;;;4964358;28;20029;-95
2023/08/06 09:09:13;;;;;;;13.07;9.85;;;20.40;99.40;;;;;;4967362;28;20061;-94
2023/08/06 09:11:45;;;;;;;12.02;10.15;;;20.50;98.90;;;;;;4967829;28;20026;-94
2023/08/06 09:14:12;;;;;;;12.63;9.73;;;20.50;99.30;;;;;;4982264;28;20029;-91
2023/08/06 09:16:40;;;;;;;12.40;9.98;;;20.60;99.30;;;;;;4980949;28;20049;-92
2023/08/06 09:19:12;;;;;;;12.32;10.55;;;20.70;99.40;;;;;;4972170;28;20025;-93
2023/08/06 09:21:42;;;;;;;13.82;10.25;;;20.70;99.30;;;;;;4970134;28;20098;-94
2023/08/06 09:24:22;;;;;;;10.68;9.57;;;20.70;98.90;;;;;;4971141;28;20088;-92
2023/08/06 09:26:49;;;;;;;12.80;11.02;;;20.70;98.70;;;;;;4971906;28;20010;-93
2023/08/06 09:29:15;;;;;;;11.77;9.93;;;20.70;99.00;;;;;;4985346;28;20045;-94
2023/08/06 09:31:44;;;;;;;12.63;10.20;;;20.90;99.20;;;;;;4989210;28;20478;-95
2023/08/06 09:34:22;;;;;;;12.48;9.75;;;21.00;98.50;;;;;;4977601;28;20641;-95
2023/08/06 09:36:53;;;;;;;14.60;11.13;;;21.10;99.00;;;;;;4973004;28;20035;-95
2023/08/06 09:39:20;;;;;;;19.08;10.70;;;21.10;97.80;;;;;;4972135;28;21285;-80
2023/08/06 09:41:49;;;;;;;11.82;10.63;;;21.00;97.80;;;;;;4975431;28;20022;-96
2023/08/06 09:44:23;;;;;;;11.77;10.55;;;21.10;97.90;;;;;;5044135;23;20050;-96
2023/08/06 09:46:53;;;;;;;14.85;12.02;;;21.20;98.70;;;;;;4983340;28;20062;-94
2023/08/06 09:49:20;;;;;;;14.30;11.65;;;21.20;98.20;;;;;;4978487;28;20087;-96
2023/08/06 09:51:53;;;;;;;12.95;11.57;;;21.20;98.70;;;;;;4975526;28;20111;-93
2023/08/06 09:54:19;;;;;;;21.05;13.07;;;21.00;99.10;;;;;;4975601;28;20031;-96
2023/08/06 09:56:45;;;;;;;18.42;13.40;;;21.00;99.00;;;;;;4973477;28;20027;-96
2023/08/06 09:59:12;;;;;;;19.67;14.75;;;21.10;98.90;;;;;;4989313;28;20042;-95
2023/08/06 10:01:38;;;;;;;16.20;14.15;;;21.20;99.50;;;;;;4976297;28;20022;-96
2023/08/06 10:04:08;;;;;;;18.45;15.85;;;21.10;99.70;;;;;;4973231;28;20555;-96
2023/08/06 10:06:37;;;;;;;20.75;15.75;;;21.00;99.30;;;;;;4969803;28;20543;-96
2023/08/06 10:09:06;;;;;;;18.50;15.90;;;21.10;99.60;;;;;;4972440;28;20027;-96
2023/08/06 10:11:32;;;;;;;17.20;15.30;;;21.10;98.90;;;;;;4971443;28;20212;-96
2023/08/06 10:14:26;;;;;;;16.88;14.75;;;21.20;99.90;;;;;;4975052;28;20046;-94
2023/08/06 10:16:52;;;;;;;20.70;14.95;;;21.30;99.30;;;;;;4967127;28;20043;-96
2023/08/06 10:19:19;;;;;;;19.13;15.27;;;21.40;99.10;;;;;;4943080;28;20055;-96
2023/08/06 10:22:17;;;;;;;17.95;15.30;;;21.40;99.30;;;;;;4937277;28;20479;-90
2023/08/06 10:25:05;;;;;;;19.13;15.85;;;21.50;99.10;;;;;;4929626;28;20031;-92
2023/08/06 10:27:34;;;;;;;19.25;13.98;;;21.50;99.10;;;;;;4930174;28;20035;-92
2023/08/06 10:30:26;;;;;;;18.60;15.57;;;21.50;99.30;;;;;;4930403;28;20703;-94
2023/08/06 10:33:03;;;;;;;22.35;15.85;;;21.40;99.10;;;;;;4947151;28;20062;-93
2023/08/06 10:35:49;;;;;;;24.23;14.48;;;21.30;99.40;;;;;;4945290;28;20036;-95
2023/08/06 10:38:16;;;;;;;19.55;14.60;;;21.30;99.80;;;;;;4929880;28;20391;-93
2023/08/06 10:41:03;;;;;;;26.65;15.23;;;21.40;99.90;;;;;;4931103;28;20091;-93
2023/08/06 10:43:29;;;;;;;20.02;15.90;;;21.70;99.80;;;;;;4950144;28;20039;-85
2023/08/06 10:45:56;;;;;;;23.55;14.15;;;21.80;99.10;;;;;;4936307;28;20034;-94
2023/08/06 10:48:33;;;;;;;18.70;13.77;;;21.70;99.10;;;;;;4949197;28;20063;-96
2023/08/06 10:51:01;;;;;;;15.32;13.38;;;21.90;98.10;;;;;;4931405;28;20476;-96
2023/08/06 10:53:27;;;;;;;12.77;11.55;;;22.10;98.10;;;;;;4947203;28;20089;-95
2023/08/06 10:55:53;;;;;;;13.70;11.77;;;22.40;97.70;;;;;;4983849;28;20398;-87
2023/08/06 10:58:18;;;;;;;11.55;10.32;;;22.40;97.00;;;;;;4964545;28;20097;-80
2023/08/06 11:00:45;;;;;;;11.15;9.98;;;22.50;96.30;;;;;;4961355;28;20023;-81
2023/08/06 11:03:11;;;;;;;10.73;9.73;;;22.50;96.50;;;;;;4962242;28;20042;-81
2023/08/06 11:05:36;;;;;;;7.75;6.95;;;22.60;96.50;;;;;;4963406;28;20427;-81
2023/08/06 11:08:04;;;;;;;11.77;6.78;;;22.70;95.70;;;;;;4961454;28;20128;-81
2023/08/06 11:10:33;;;;;;;6.82;6.15;;;22.60;97.10;;;;;;4963094;28;20571;-81
2023/08/06 11:13:03;;;;;;;7.85;7.13;;;22.80;96.70;;;;;;4965369;28;20045;-81
2023/08/06 11:15:30;;;;;;;5.65;5.25;;;23.10;97.30;;;;;;4977999;28;20031;-81
2023/08/06 11:17:55;;;;;;;5.20;4.80;;;23.20;95.40;;;;;;4962496;28;20019;-82
2023/08/06 11:20:24;;;;;;;5.38;4.90;;;23.20;95.60;;;;;;4963980;28;20027;-82
2023/08/06 11:22:52;;;;;;;6.95;4.90;;;23.30;94.90;;;;;;4961372;28;20399;-81
2023/08/06 11:25:21;;;;;;;7.00;5.90;;;23.40;94.60;;;;;;4964805;28;20369;-81
2023/08/06 11:27:47;;;;;;;6.57;6.07;;;23.30;94.70;;;;;;4960267;28;20070;-80
2023/08/06 11:30:14;;;;;;;6.97;6.38;;;23.40;95.90;;;;;;4964126;28;20081;-80
2023/08/06 11:32:49;;;;;;;5.78;5.32;;;23.60;95.00;;;;;;4963342;28;20031;-79
2023/08/06 11:35:15;;;;;;;4.40;4.00;;;23.50;94.70;;;;;;4977894;28;20355;-80
2023/08/06 11:37:45;;;;;;;3.45;3.17;;;23.40;95.20;;;;;;4963898;28;20181;-80
2023/08/06 11:40:11;;;;;;;3.67;3.38;;;23.00;94.40;;;;;;4961874;28;20023;-80
2023/08/06 11:42:37;;;;;;;4.90;3.55;;;22.80;94.30;;;;;;4963077;28;20030;-79
2023/08/06 11:45:04;;;;;;;4.50;3.40;;;22.70;94.40;;;;;;4960018;28;20081;-80
2023/08/06 11:47:30;;;;;;;1.30;1.20;;;22.40;95.00;;;;;;4963362;28;20023;-82
2023/08/06 11:49:58;;;;;;;1.95;0.80;;;21.90;94.90;;;;;;4963473;28;20030;-83
2023/08/06 11:52:25;;;;;;;0.95;0.90;;;21.00;95.20;;;;;;4960909;28;20125;-81
2023/08/06 11:55:00;;;;;;;1.30;0.50;;;20.50;96.30;;;;;;4962051;28;20034;-81
2023/08/06 11:57:25;;;;;;;0.30;0.30;;;19.90;96.90;;;;;;4962283;28;20027;-81
2023/08/06 11:59:51;;;;;;;0.65;0.40;;;19.50;98.00;;;;;;4963447;28;20034;-80
2023/08/06 12:02:17;;;;;;;1.17;0.30;;;19.20;98.00;;;;;;4962446;28;20065;-80
2023/08/06 12:05:02;;;;;;;0.52;0.30;;;19.00;98.20;;;;;;4963844;28;20452;-81
2023/08/06 12:07:32;;;;;;;0.43;0.32;;;18.80;98.50;;;;;;4977761;28;20430;-81
2023/08/06 12:09:59;;;;;;;0.40;0.40;;;18.70;99.10;;;;;;4961606;28;20023;-81
2023/08/06 12:12:25;;;;;;;0.57;0.40;;;18.60;99.40;;;;;;4963785;28;20034;-80
2023/08/06 12:14:51;;;;;;;0.30;0.30;;;18.50;99.80;;;;;;4961818;28;20027;-82
2023/08/06 12:17:16;;;;;;;0.85;0.40;;;18.50;99.90;;;;;;4962749;28;20061;-80
2023/08/06 12:19:45;;;;;;;0.57;0.40;;;18.40;99.90;;;;;;4962478;28;21156;-82
2023/08/06 12:22:10;;;;;;;0.35;0.30;;;18.30;99.90;;;;;;4960615;28;20105;-81
2023/08/06 12:24:36;;;;;;;2.58;0.32;;;18.30;99.90;;;;;;4959891;28;20113;-81
2023/08/06 12:27:04;;;;;;;0.30;0.30;;;18.40;99.90;;;;;;4961274;28;20467;-81
2023/08/06 12:29:31;;;;;;;0.40;0.20;;;18.30;99.90;;;;;;4960259;28;20026;-82
2023/08/06 12:31:56;;;;;;;0.80;0.47;;;18.40;99.90;;;;;;4963150;28;20066;-81
2023/08/06 12:34:23;;;;;;;0.52;0.50;;;18.30;99.90;;;;;;4960388;28;20479;-80
2023/08/06 12:36:48;;;;;;;0.70;0.40;;;18.20;99.90;;;;;;4976927;28;20025;-81
2023/08/06 12:39:14;;;;;;;0.47;0.47;;;18.20;99.90;;;;;;4961916;28;20031;-81
2023/08/06 12:41:39;;;;;;;0.82;0.70;;;18.30;99.90;;;;;;4962736;28;20483;-80
2023/08/06 12:44:05;;;;;;;0.75;0.52;;;18.20;99.90;;;;;;4963261;28;20038;-81
2023/08/06 12:46:31;;;;;;;0.65;0.65;;;18.20;99.90;;;;;;4959267;28;20034;-82
2023/08/06 12:48:59;;;;;;;1.13;0.70;;;18.10;99.90;;;;;;4961876;28;20019;-81
2023/08/06 12:51:25;;;;;;;0.50;0.50;;;18.10;99.90;;;;;;4960311;28;20856;-81
2023/08/06 12:53:50;;;;;;;1.27;0.75;;;18.30;99.90;;;;;;4965325;28;20123;-82
2023/08/06 12:56:16;;;;;;;1.42;0.90;;;18.30;99.90;;;;;;4967222;28;20050;-81
2023/08/06 12:58:42;;;;;;;0.68;0.63;;;18.40;99.90;;;;;;4967875;28;20027;-81